Mortugaba, Brazil
Current Conditions -  °F | °C
As of 9:00 AM on Wednesday 26 Nov 2014 (Local Time) from SBQV Reporting Station
Few Clouds Few Clouds  
Wind Chill: 75°   Ceiling: Unl
Heat Index: 75°   Visibility: 6mi
Dew Point: 64°   Wind: 9mph
Humidity: 69%   Direction: 60°ENE
Pressure: 30.09"   Gusts: NA
Location:  15°S, 42.31°W
Report Text: SBQV 261200Z 06008KT 9999 FEW018 24/18 Q1019
Loading
Personal Weather Stations






























Interactive Weather Map New forecast layout! Learn more

10-Day Weather Forecast

Advertisements
Track Severe Weather on mobile